sensor_id;sensor_type;location;lat;lon;timestamp;P1;durP1;ratioP1;P2;durP2;ratioP2
5553;SDS011;2800;49.528;8.666;2022-09-12T00:03:33;14.90;;;10.30;;
5553;SDS011;2800;49.528;8.666;2022-09-12T00:05:59;14.10;;;11.00;;
5553;SDS011;2800;49.528;8.666;2022-09-12T00:08:25;15.40;;;10.20;;
5553;SDS011;2800;49.528;8.666;2022-09-12T00:10:50;17.20;;;11.27;;
5553;SDS011;2800;49.528;8.666;2022-09-12T00:13:16;14.50;;;11.03;;
5553;SDS011;2800;49.528;8.666;2022-09-12T00:15:42;14.23;;;11.00;;
5553;SDS011;2800;49.528;8.666;2022-09-12T00:18:09;16.27;;;11.13;;
5553;SDS011;2800;49.528;8.666;2022-09-12T00:20:41;13.90;;;11.27;;
5553;SDS011;2800;49.528;8.666;2022-09-12T00:23:08;13.20;;;10.30;;
5553;SDS011;2800;49.528;8.666;2022-09-12T00:25:33;14.70;;;10.93;;
5553;SDS011;2800;49.528;8.666;2022-09-12T00:28:04;14.03;;;11.27;;
5553;SDS011;2800;49.528;8.666;2022-09-12T00:30:30;16.67;;;10.50;;
5553;SDS011;2800;49.528;8.666;2022-09-12T00:32:55;13.67;;;10.90;;
5553;SDS011;2800;49.528;8.666;2022-09-12T00:35:21;22.67;;;11.40;;
5553;SDS011;2800;49.528;8.666;2022-09-12T00:37:46;16.50;;;12.10;;
5553;SDS011;2800;49.528;8.666;2022-09-12T00:40:12;19.47;;;11.10;;
5553;SDS011;2800;49.528;8.666;2022-09-12T00:42:37;21.73;;;11.67;;
5553;SDS011;2800;49.528;8.666;2022-09-12T00:45:03;14.90;;;11.60;;
5553;SDS011;2800;49.528;8.666;2022-09-12T00:47:29;15.57;;;11.27;;
5553;SDS011;2800;49.528;8.666;2022-09-12T00:52:28;17.27;;;12.27;;
5553;SDS011;2800;49.528;8.666;2022-09-12T00:55:01;17.50;;;10.93;;
5553;SDS011;2800;49.528;8.666;2022-09-12T00:57:36;17.00;;;11.40;;
5553;SDS011;2800;49.528;8.666;2022-09-12T01:00:09;16.13;;;11.80;;
5553;SDS011;2800;49.528;8.666;2022-09-12T01:02:39;16.00;;;12.03;;
5553;SDS011;2800;49.528;8.666;2022-09-12T01:05:06;18.03;;;11.30;;
5553;SDS011;2800;49.528;8.666;2022-09-12T01:07:34;16.70;;;10.93;;
5553;SDS011;2800;49.528;8.666;2022-09-12T01:10:01;17.37;;;12.10;;
5553;SDS011;2800;49.528;8.666;2022-09-12T01:12:28;13.97;;;11.50;;
5553;SDS011;2800;49.528;8.666;2022-09-12T01:14:53;15.60;;;12.30;;
5553;SDS011;2800;49.528;8.666;2022-09-12T01:17:19;20.97;;;12.53;;
5553;SDS011;2800;49.528;8.666;2022-09-12T01:19:56;18.33;;;13.10;;
5553;SDS011;2800;49.528;8.666;2022-09-12T01:23:03;18.00;;;13.53;;
5553;SDS011;2800;49.528;8.666;2022-09-12T01:26:02;20.67;;;11.87;;
5553;SDS011;2800;49.528;8.666;2022-09-12T01:29:08;18.83;;;12.20;;
5553;SDS011;2800;49.528;8.666;2022-09-12T01:32:03;17.10;;;12.37;;
5553;SDS011;2800;49.528;8.666;2022-09-12T01:35:14;16.40;;;12.10;;
5553;SDS011;2800;49.528;8.666;2022-09-12T01:37:53;16.90;;;12.73;;
5553;SDS011;2800;49.528;8.666;2022-09-12T01:43:50;15.27;;;11.83;;
5553;SDS011;2800;49.528;8.666;2022-09-12T01:46:14;15.90;;;11.40;;
5553;SDS011;2800;49.528;8.666;2022-09-12T01:48:55;14.90;;;11.30;;
5553;SDS011;2800;49.528;8.666;2022-09-12T01:54:40;18.20;;;12.30;;
5553;SDS011;2800;49.528;8.666;2022-09-12T01:57:17;19.00;;;12.27;;
5553;SDS011;2800;49.528;8.666;2022-09-12T01:59:49;16.33;;;11.77;;
5553;SDS011;2800;49.528;8.666;2022-09-12T02:05:01;17.27;;;11.93;;
5553;SDS011;2800;49.528;8.666;2022-09-12T02:07:43;17.17;;;11.63;;
5553;SDS011;2800;49.528;8.666;2022-09-12T02:10:17;15.07;;;11.90;;
5553;SDS011;2800;49.528;8.666;2022-09-12T02:13:02;16.90;;;11.50;;
5553;SDS011;2800;49.528;8.666;2022-09-12T02:15:39;13.83;;;11.40;;
5553;SDS011;2800;49.528;8.666;2022-09-12T02:18:09;12.43;;;10.47;;
5553;SDS011;2800;49.528;8.666;2022-09-12T02:20:38;15.13;;;11.07;;
5553;SDS011;2800;49.528;8.666;2022-09-12T02:23:08;15.97;;;12.30;;
5553;SDS011;2800;49.528;8.666;2022-09-12T02:25:40;15.13;;;10.50;;
5553;SDS011;2800;49.528;8.666;2022-09-12T02:28:14;16.17;;;11.40;;
5553;SDS011;2800;49.528;8.666;2022-09-12T02:33:35;16.27;;;10.87;;
5553;SDS011;2800;49.528;8.666;2022-09-12T02:36:18;14.77;;;11.40;;
5553;SDS011;2800;49.528;8.666;2022-09-12T02:38:49;14.70;;;11.40;;
5553;SDS011;2800;49.528;8.666;2022-09-12T02:41:16;15.67;;;11.17;;
5553;SDS011;2800;49.528;8.666;2022-09-12T02:43:44;14.33;;;10.80;;
5553;SDS011;2800;49.528;8.666;2022-09-12T02:46:15;16.30;;;10.53;;
5553;SDS011;2800;49.528;8.666;2022-09-12T02:48:44;15.53;;;10.53;;
5553;SDS011;2800;49.528;8.666;2022-09-12T02:51:10;14.63;;;11.20;;
5553;SDS011;2800;49.528;8.666;2022-09-12T02:53:36;17.07;;;11.47;;
5553;SDS011;2800;49.528;8.666;2022-09-12T02:56:03;19.23;;;10.37;;
5553;SDS011;2800;49.528;8.666;2022-09-12T02:58:32;15.47;;;10.77;;
5553;SDS011;2800;49.528;8.666;2022-09-12T03:06:47;14.40;;;11.10;;
5553;SDS011;2800;49.528;8.666;2022-09-12T03:09:30;15.97;;;10.90;;
5553;SDS011;2800;49.528;8.666;2022-09-12T03:17:39;15.30;;;11.03;;
5553;SDS011;2800;49.528;8.666;2022-09-12T03:23:24;18.90;;;11.10;;
5553;SDS011;2800;49.528;8.666;2022-09-12T03:26:02;16.70;;;12.00;;
5553;SDS011;2800;49.528;8.666;2022-09-12T03:28:52;17.40;;;12.03;;
5553;SDS011;2800;49.528;8.666;2022-09-12T03:31:19;17.33;;;11.93;;
5553;SDS011;2800;49.528;8.666;2022-09-12T03:33:46;17.17;;;11.77;;
5553;SDS011;2800;49.528;8.666;2022-09-12T03:36:14;16.27;;;11.73;;
5553;SDS011;2800;49.528;8.666;2022-09-12T03:38:43;15.57;;;12.10;;
5553;SDS011;2800;49.528;8.666;2022-09-12T03:41:09;21.53;;;12.90;;
5553;SDS011;2800;49.528;8.666;2022-09-12T03:43:34;16.97;;;12.00;;
5553;SDS011;2800;49.528;8.666;2022-09-12T03:46:00;17.53;;;11.87;;
5553;SDS011;2800;49.528;8.666;2022-09-12T03:48:25;16.77;;;11.60;;
5553;SDS011;2800;49.528;8.666;2022-09-12T03:50:51;18.17;;;13.00;;
5553;SDS011;2800;49.528;8.666;2022-09-12T03:53:16;19.97;;;12.30;;
5553;SDS011;2800;49.528;8.666;2022-09-12T03:55:42;15.03;;;11.70;;
5553;SDS011;2800;49.528;8.666;2022-09-12T03:58:07;17.07;;;13.10;;
5553;SDS011;2800;49.528;8.666;2022-09-12T04:00:33;17.13;;;12.77;;
5553;SDS011;2800;49.528;8.666;2022-09-12T04:02:58;16.43;;;12.30;;
5553;SDS011;2800;49.528;8.666;2022-09-12T04:05:24;18.83;;;12.57;;
5553;SDS011;2800;49.528;8.666;2022-09-12T04:07:50;16.07;;;12.70;;
5553;SDS011;2800;49.528;8.666;2022-09-12T04:10:15;18.77;;;12.63;;
5553;SDS011;2800;49.528;8.666;2022-09-12T04:12:41;18.90;;;13.10;;
5553;SDS011;2800;49.528;8.666;2022-09-12T04:15:07;18.10;;;13.63;;
5553;SDS011;2800;49.528;8.666;2022-09-12T04:17:33;18.30;;;13.50;;
5553;SDS011;2800;49.528;8.666;2022-09-12T04:19:59;19.57;;;13.07;;
5553;SDS011;2800;49.528;8.666;2022-09-12T04:22:25;19.77;;;14.20;;
5553;SDS011;2800;49.528;8.666;2022-09-12T04:24:50;18.97;;;13.00;;
5553;SDS011;2800;49.528;8.666;2022-09-12T04:27:16;18.20;;;13.63;;
5553;SDS011;2800;49.528;8.666;2022-09-12T04:29:42;17.40;;;13.37;;
5553;SDS011;2800;49.528;8.666;2022-09-12T04:32:07;18.53;;;13.47;;
5553;SDS011;2800;49.528;8.666;2022-09-12T04:34:33;16.70;;;13.27;;
5553;SDS011;2800;49.528;8.666;2022-09-12T04:36:58;16.30;;;12.43;;
5553;SDS011;2800;49.528;8.666;2022-09-12T04:39:24;17.00;;;13.13;;
5553;SDS011;2800;49.528;8.666;2022-09-12T04:41:50;18.83;;;12.67;;
5553;SDS011;2800;49.528;8.666;2022-09-12T04:44:15;21.63;;;14.13;;
5553;SDS011;2800;49.528;8.666;2022-09-12T04:46:42;24.70;;;14.07;;
5553;SDS011;2800;49.528;8.666;2022-09-12T04:49:09;17.40;;;13.37;;
5553;SDS011;2800;49.528;8.666;2022-09-12T04:51:36;17.73;;;12.80;;
5553;SDS011;2800;49.528;8.666;2022-09-12T04:54:04;20.27;;;13.40;;
5553;SDS011;2800;49.528;8.666;2022-09-12T04:56:35;17.10;;;13.07;;
5553;SDS011;2800;49.528;8.666;2022-09-12T04:59:02;16.00;;;12.60;;
5553;SDS011;2800;49.528;8.666;2022-09-12T05:01:27;19.10;;;13.20;;
5553;SDS011;2800;49.528;8.666;2022-09-12T05:03:54;16.30;;;12.90;;
5553;SDS011;2800;49.528;8.666;2022-09-12T05:06:25;25.63;;;13.63;;
5553;SDS011;2800;49.528;8.666;2022-09-12T05:08:54;19.17;;;12.97;;
5553;SDS011;2800;49.528;8.666;2022-09-12T05:11:22;19.10;;;14.27;;
5553;SDS011;2800;49.528;8.666;2022-09-12T05:13:49;20.30;;;12.17;;
5553;SDS011;2800;49.528;8.666;2022-09-12T05:16:16;18.47;;;12.83;;
5553;SDS011;2800;49.528;8.666;2022-09-12T05:18:43;22.10;;;13.10;;
5553;SDS011;2800;49.528;8.666;2022-09-12T05:21:11;15.73;;;11.63;;
5553;SDS011;2800;49.528;8.666;2022-09-12T05:23:39;16.43;;;12.10;;
5553;SDS011;2800;49.528;8.666;2022-09-12T05:26:05;17.97;;;12.67;;
5553;SDS011;2800;49.528;8.666;2022-09-12T05:28:36;19.33;;;12.63;;
5553;SDS011;2800;49.528;8.666;2022-09-12T05:31:06;16.80;;;12.50;;
5553;SDS011;2800;49.528;8.666;2022-09-12T05:33:33;20.30;;;12.33;;
5553;SDS011;2800;49.528;8.666;2022-09-12T05:36:01;17.20;;;12.23;;
5553;SDS011;2800;49.528;8.666;2022-09-12T05:38:27;16.57;;;12.27;;
5553;SDS011;2800;49.528;8.666;2022-09-12T05:40:53;13.90;;;11.27;;
5553;SDS011;2800;49.528;8.666;2022-09-12T05:43:27;16.03;;;12.30;;
5553;SDS011;2800;49.528;8.666;2022-09-12T05:45:59;17.33;;;12.00;;
5553;SDS011;2800;49.528;8.666;2022-09-12T05:48:28;16.00;;;11.30;;
5553;SDS011;2800;49.528;8.666;2022-09-12T05:51:04;15.57;;;11.20;;
5553;SDS011;2800;49.528;8.666;2022-09-12T05:53:33;15.57;;;11.70;;
5553;SDS011;2800;49.528;8.666;2022-09-12T05:56:07;17.03;;;11.30;;
5553;SDS011;2800;49.528;8.666;2022-09-12T05:58:35;16.73;;;11.17;;
5553;SDS011;2800;49.528;8.666;2022-09-12T06:01:05;15.73;;;12.80;;
5553;SDS011;2800;49.528;8.666;2022-09-12T06:03:33;18.37;;;11.80;;
5553;SDS011;2800;49.528;8.666;2022-09-12T06:06:03;17.17;;;11.70;;
5553;SDS011;2800;49.528;8.666;2022-09-12T06:08:30;21.23;;;14.90;;
5553;SDS011;2800;49.528;8.666;2022-09-12T06:10:57;16.43;;;13.23;;
5553;SDS011;2800;49.528;8.666;2022-09-12T06:13:32;15.60;;;10.70;;
5553;SDS011;2800;49.528;8.666;2022-09-12T06:16:02;40.90;;;30.10;;
5553;SDS011;2800;49.528;8.666;2022-09-12T06:18:29;31.83;;;20.73;;
5553;SDS011;2800;49.528;8.666;2022-09-12T06:20:55;28.97;;;15.80;;
5553;SDS011;2800;49.528;8.666;2022-09-12T06:23:21;16.70;;;11.10;;
5553;SDS011;2800;49.528;8.666;2022-09-12T06:25:47;22.63;;;16.37;;
5553;SDS011;2800;49.528;8.666;2022-09-12T06:28:14;18.60;;;12.10;;
5553;SDS011;2800;49.528;8.666;2022-09-12T06:30:39;17.70;;;9.83;;
5553;SDS011;2800;49.528;8.666;2022-09-12T06:33:05;17.37;;;9.97;;
5553;SDS011;2800;49.528;8.666;2022-09-12T06:35:34;18.07;;;9.90;;
5553;SDS011;2800;49.528;8.666;2022-09-12T06:38:00;15.43;;;9.40;;
5553;SDS011;2800;49.528;8.666;2022-09-12T06:40:25;21.07;;;9.67;;
5553;SDS011;2800;49.528;8.666;2022-09-12T06:42:52;15.20;;;10.60;;
5553;SDS011;2800;49.528;8.666;2022-09-12T06:45:17;15.70;;;10.50;;
5553;SDS011;2800;49.528;8.666;2022-09-12T06:47:44;17.73;;;9.63;;
5553;SDS011;2800;49.528;8.666;2022-09-12T06:50:09;16.27;;;9.20;;
5553;SDS011;2800;49.528;8.666;2022-09-12T06:52:35;14.03;;;10.23;;
5553;SDS011;2800;49.528;8.666;2022-09-12T06:55:01;15.67;;;10.07;;
5553;SDS011;2800;49.528;8.666;2022-09-12T06:57:27;12.23;;;9.27;;
5553;SDS011;2800;49.528;8.666;2022-09-12T06:59:55;15.03;;;10.27;;
5553;SDS011;2800;49.528;8.666;2022-09-12T07:02:20;13.80;;;9.60;;
5553;SDS011;2800;49.528;8.666;2022-09-12T07:04:46;18.10;;;9.77;;
5553;SDS011;2800;49.528;8.666;2022-09-12T07:07:13;15.00;;;10.20;;
5553;SDS011;2800;49.528;8.666;2022-09-12T07:09:39;14.57;;;11.40;;
5553;SDS011;2800;49.528;8.666;2022-09-12T07:12:04;13.63;;;10.10;;
5553;SDS011;2800;49.528;8.666;2022-09-12T07:14:30;16.07;;;10.17;;
5553;SDS011;2800;49.528;8.666;2022-09-12T07:16:56;15.17;;;11.30;;
5553;SDS011;2800;49.528;8.666;2022-09-12T07:19:21;15.60;;;9.70;;
5553;SDS011;2800;49.528;8.666;2022-09-12T07:21:48;17.60;;;10.60;;
5553;SDS011;2800;49.528;8.666;2022-09-12T07:24:14;17.00;;;10.37;;
5553;SDS011;2800;49.528;8.666;2022-09-12T07:26:39;14.30;;;9.43;;
5553;SDS011;2800;49.528;8.666;2022-09-12T07:29:06;13.37;;;9.90;;
5553;SDS011;2800;49.528;8.666;2022-09-12T07:31:33;14.20;;;9.90;;
5553;SDS011;2800;49.528;8.666;2022-09-12T07:33:58;19.87;;;9.70;;
5553;SDS011;2800;49.528;8.666;2022-09-12T07:36:24;16.13;;;9.83;;
5553;SDS011;2800;49.528;8.666;2022-09-12T07:38:53;12.27;;;9.50;;
5553;SDS011;2800;49.528;8.666;2022-09-12T07:41:21;16.60;;;10.93;;
5553;SDS011;2800;49.528;8.666;2022-09-12T07:43:52;16.60;;;9.60;;
5553;SDS011;2800;49.528;8.666;2022-09-12T07:46:19;13.90;;;10.00;;
5553;SDS011;2800;49.528;8.666;2022-09-12T07:48:52;16.90;;;10.27;;
5553;SDS011;2800;49.528;8.666;2022-09-12T07:51:19;20.13;;;10.50;;
5553;SDS011;2800;49.528;8.666;2022-09-12T07:53:45;15.83;;;10.80;;
5553;SDS011;2800;49.528;8.666;2022-09-12T07:56:12;14.83;;;10.70;;
5553;SDS011;2800;49.528;8.666;2022-09-12T07:58:39;17.53;;;11.17;;
5553;SDS011;2800;49.528;8.666;2022-09-12T08:01:07;18.30;;;10.70;;
5553;SDS011;2800;49.528;8.666;2022-09-12T08:03:37;16.73;;;11.10;;
5553;SDS011;2800;49.528;8.666;2022-09-12T08:08:34;17.90;;;11.30;;
5553;SDS011;2800;49.528;8.666;2022-09-12T08:11:00;13.80;;;10.13;;
5553;SDS011;2800;49.528;8.666;2022-09-12T08:13:29;17.50;;;11.10;;
5553;SDS011;2800;49.528;8.666;2022-09-12T08:15:56;14.07;;;10.97;;
5553;SDS011;2800;49.528;8.666;2022-09-12T08:18:23;16.93;;;11.40;;
5553;SDS011;2800;49.528;8.666;2022-09-12T08:20:54;18.67;;;12.10;;
5553;SDS011;2800;49.528;8.666;2022-09-12T08:23:21;16.93;;;11.57;;
5553;SDS011;2800;49.528;8.666;2022-09-12T08:25:48;17.93;;;11.50;;
5553;SDS011;2800;49.528;8.666;2022-09-12T08:28:14;19.03;;;12.93;;
5553;SDS011;2800;49.528;8.666;2022-09-12T08:30:39;20.30;;;12.27;;
5553;SDS011;2800;49.528;8.666;2022-09-12T08:33:05;17.63;;;12.83;;
5553;SDS011;2800;49.528;8.666;2022-09-12T08:35:31;14.70;;;11.73;;
5553;SDS011;2800;49.528;8.666;2022-09-12T08:37:57;16.00;;;12.00;;
5553;SDS011;2800;49.528;8.666;2022-09-12T08:40:22;16.20;;;12.40;;
5553;SDS011;2800;49.528;8.666;2022-09-12T08:43:02;16.90;;;12.00;;
5553;SDS011;2800;49.528;8.666;2022-09-12T08:45:42;15.07;;;12.17;;
5553;SDS011;2800;49.528;8.666;2022-09-12T08:48:32;20.20;;;12.60;;
5553;SDS011;2800;49.528;8.666;2022-09-12T08:50:59;15.40;;;11.67;;
5553;SDS011;2800;49.528;8.666;2022-09-12T08:53:25;15.10;;;11.33;;
5553;SDS011;2800;49.528;8.666;2022-09-12T08:55:57;18.80;;;12.30;;
5553;SDS011;2800;49.528;8.666;2022-09-12T08:58:24;14.33;;;11.60;;
5553;SDS011;2800;49.528;8.666;2022-09-12T09:05:50;17.77;;;10.93;;
5553;SDS011;2800;49.528;8.666;2022-09-12T09:08:49;14.30;;;11.73;;
5553;SDS011;2800;49.528;8.666;2022-09-12T09:11:49;19.20;;;11.40;;
5553;SDS011;2800;49.528;8.666;2022-09-12T09:17:12;17.00;;;11.93;;
5553;SDS011;2800;49.528;8.666;2022-09-12T09:19:58;15.83;;;11.80;;
5553;SDS011;2800;49.528;8.666;2022-09-12T09:22:42;13.60;;;11.50;;
5553;SDS011;2800;49.528;8.666;2022-09-12T09:25:20;15.20;;;11.17;;
5553;SDS011;2800;49.528;8.666;2022-09-12T09:30:26;17.17;;;12.37;;
5553;SDS011;2800;49.528;8.666;2022-09-12T09:32:56;20.53;;;12.23;;
5553;SDS011;2800;49.528;8.666;2022-09-12T09:35:30;15.50;;;11.90;;
5553;SDS011;2800;49.528;8.666;2022-09-12T09:38:00;15.30;;;11.63;;
5553;SDS011;2800;49.528;8.666;2022-09-12T09:40:55;19.73;;;12.17;;
5553;SDS011;2800;49.528;8.666;2022-09-12T09:43:23;15.43;;;11.47;;
5553;SDS011;2800;49.528;8.666;2022-09-12T09:45:53;16.43;;;10.50;;
5553;SDS011;2800;49.528;8.666;2022-09-12T09:50:56;18.60;;;11.07;;
5553;SDS011;2800;49.528;8.666;2022-09-12T09:53:25;15.93;;;10.80;;
5553;SDS011;2800;49.528;8.666;2022-09-12T09:55:59;13.60;;;10.73;;
5553;SDS011;2800;49.528;8.666;2022-09-12T09:58:28;14.77;;;11.17;;
5553;SDS011;2800;49.528;8.666;2022-09-12T10:00:58;20.23;;;11.00;;
5553;SDS011;2800;49.528;8.666;2022-09-12T10:03:29;24.73;;;12.57;;
5553;SDS011;2800;49.528;8.666;2022-09-12T10:08:44;18.20;;;10.47;;
5553;SDS011;2800;49.528;8.666;2022-09-12T10:11:20;13.60;;;11.00;;
5553;SDS011;2800;49.528;8.666;2022-09-12T10:16:20;12.93;;;10.60;;
5553;SDS011;2800;49.528;8.666;2022-09-12T10:18:48;12.30;;;10.20;;
5553;SDS011;2800;49.528;8.666;2022-09-12T10:24:35;15.80;;;12.33;;
5553;SDS011;2800;49.528;8.666;2022-09-12T10:27:06;14.43;;;10.80;;
5553;SDS011;2800;49.528;8.666;2022-09-12T10:29:32;16.17;;;11.43;;
5553;SDS011;2800;49.528;8.666;2022-09-12T10:32:05;15.67;;;10.40;;
5553;SDS011;2800;49.528;8.666;2022-09-12T10:34:37;18.03;;;10.00;;
5553;SDS011;2800;49.528;8.666;2022-09-12T10:37:08;18.43;;;10.57;;
5553;SDS011;2800;49.528;8.666;2022-09-12T10:39:41;13.40;;;9.17;;
5553;SDS011;2800;49.528;8.666;2022-09-12T10:48:00;14.77;;;9.70;;
5553;SDS011;2800;49.528;8.666;2022-09-12T10:50:31;11.20;;;8.90;;
5553;SDS011;2800;49.528;8.666;2022-09-12T10:53:22;18.10;;;11.93;;
5553;SDS011;2800;49.528;8.666;2022-09-12T11:01:43;12.40;;;9.40;;
5553;SDS011;2800;49.528;8.666;2022-09-12T11:15:13;10.70;;;5.70;;
5553;SDS011;2800;49.528;8.666;2022-09-12T11:17:55;7.20;;;4.90;;
5553;SDS011;2800;49.528;8.666;2022-09-12T11:20:44;8.10;;;4.77;;
5553;SDS011;2800;49.528;8.666;2022-09-12T11:23:24;6.37;;;4.37;;
5553;SDS011;2800;49.528;8.666;2022-09-12T11:26:27;6.70;;;4.10;;
5553;SDS011;2800;49.528;8.666;2022-09-12T11:29:14;7.33;;;4.40;;
5553;SDS011;2800;49.528;8.666;2022-09-12T11:35:02;7.37;;;5.50;;
5553;SDS011;2800;49.528;8.666;2022-09-12T11:46:37;8.20;;;6.03;;
5553;SDS011;2800;49.528;8.666;2022-09-12T11:55:17;5.57;;;3.90;;
5553;SDS011;2800;49.528;8.666;2022-09-12T11:57:47;5.60;;;3.90;;
5553;SDS011;2800;49.528;8.666;2022-09-12T12:00:21;6.30;;;4.10;;
5553;SDS011;2800;49.528;8.666;2022-09-12T12:06:04;7.33;;;4.40;;
5553;SDS011;2800;49.528;8.666;2022-09-12T12:08:37;7.70;;;3.83;;
5553;SDS011;2800;49.528;8.666;2022-09-12T12:11:04;5.80;;;3.47;;
5553;SDS011;2800;49.528;8.666;2022-09-12T12:13:33;6.70;;;3.50;;
5553;SDS011;2800;49.528;8.666;2022-09-12T12:18:38;5.40;;;3.10;;
5553;SDS011;2800;49.528;8.666;2022-09-12T12:26:58;5.43;;;3.50;;
5553;SDS011;2800;49.528;8.666;2022-09-12T12:34:41;5.70;;;3.40;;
5553;SDS011;2800;49.528;8.666;2022-09-12T12:44:58;4.93;;;2.23;;
5553;SDS011;2800;49.528;8.666;2022-09-12T12:47:26;4.70;;;2.50;;
5553;SDS011;2800;49.528;8.666;2022-09-12T12:49:58;6.53;;;2.63;;
5553;SDS011;2800;49.528;8.666;2022-09-12T12:57:59;5.27;;;2.63;;
5553;SDS011;2800;49.528;8.666;2022-09-12T13:00:30;4.00;;;2.10;;
5553;SDS011;2800;49.528;8.666;2022-09-12T13:05:40;4.90;;;2.17;;
5553;SDS011;2800;49.528;8.666;2022-09-12T13:08:10;4.00;;;2.27;;
5553;SDS011;2800;49.528;8.666;2022-09-12T13:10:51;4.90;;;2.50;;
5553;SDS011;2800;49.528;8.666;2022-09-12T13:13:35;5.47;;;2.43;;
5553;SDS011;2800;49.528;8.666;2022-09-12T13:16:04;3.63;;;1.90;;
5553;SDS011;2800;49.528;8.666;2022-09-12T13:18:40;6.00;;;2.23;;
5553;SDS011;2800;49.528;8.666;2022-09-12T13:21:13;4.00;;;2.00;;
5553;SDS011;2800;49.528;8.666;2022-09-12T13:23:44;3.87;;;2.20;;
5553;SDS011;2800;49.528;8.666;2022-09-12T13:26:24;8.70;;;2.30;;
5553;SDS011;2800;49.528;8.666;2022-09-12T13:29:07;4.30;;;2.20;;
5553;SDS011;2800;49.528;8.666;2022-09-12T13:31:38;4.40;;;2.10;;
5553;SDS011;2800;49.528;8.666;2022-09-12T13:34:05;3.83;;;1.97;;
5553;SDS011;2800;49.528;8.666;2022-09-12T13:39:39;4.50;;;2.60;;
5553;SDS011;2800;49.528;8.666;2022-09-12T13:42:21;5.57;;;2.50;;
5553;SDS011;2800;49.528;8.666;2022-09-12T13:44:58;5.67;;;2.40;;
5553;SDS011;2800;49.528;8.666;2022-09-12T13:47:39;5.67;;;2.37;;
5553;SDS011;2800;49.528;8.666;2022-09-12T13:50:20;5.10;;;2.60;;
5553;SDS011;2800;49.528;8.666;2022-09-12T13:52:51;6.73;;;2.40;;
5553;SDS011;2800;49.528;8.666;2022-09-12T13:55:22;5.10;;;2.30;;
5553;SDS011;2800;49.528;8.666;2022-09-12T13:57:55;6.80;;;2.60;;
5553;SDS011;2800;49.528;8.666;2022-09-12T14:00:22;5.13;;;2.67;;
5553;SDS011;2800;49.528;8.666;2022-09-12T14:02:48;9.23;;;2.63;;
5553;SDS011;2800;49.528;8.666;2022-09-12T14:05:24;5.87;;;2.30;;
5553;SDS011;2800;49.528;8.666;2022-09-12T14:10:27;5.13;;;2.40;;
5553;SDS011;2800;49.528;8.666;2022-09-12T14:12:56;6.17;;;2.50;;
5553;SDS011;2800;49.528;8.666;2022-09-12T14:15:25;4.10;;;2.20;;
5553;SDS011;2800;49.528;8.666;2022-09-12T14:17:54;4.67;;;2.30;;
5553;SDS011;2800;49.528;8.666;2022-09-12T14:20:25;4.43;;;2.30;;
5553;SDS011;2800;49.528;8.666;2022-09-12T14:22:55;7.67;;;2.30;;
5553;SDS011;2800;49.528;8.666;2022-09-12T14:25:45;4.50;;;2.20;;
5553;SDS011;2800;49.528;8.666;2022-09-12T14:28:13;7.10;;;2.63;;
5553;SDS011;2800;49.528;8.666;2022-09-12T14:31:05;4.70;;;2.47;;
5553;SDS011;2800;49.528;8.666;2022-09-12T14:33:46;4.60;;;2.30;;
5553;SDS011;2800;49.528;8.666;2022-09-12T14:36:20;10.80;;;2.40;;
5553;SDS011;2800;49.528;8.666;2022-09-12T14:38:58;5.50;;;2.33;;
5553;SDS011;2800;49.528;8.666;2022-09-12T14:41:31;7.03;;;2.60;;
5553;SDS011;2800;49.528;8.666;2022-09-12T14:44:01;5.57;;;2.40;;
5553;SDS011;2800;49.528;8.666;2022-09-12T14:46:37;5.43;;;2.50;;
5553;SDS011;2800;49.528;8.666;2022-09-12T14:49:13;4.00;;;2.00;;
5553;SDS011;2800;49.528;8.666;2022-09-12T14:51:46;5.27;;;2.37;;
5553;SDS011;2800;49.528;8.666;2022-09-12T14:56:58;5.47;;;2.40;;
5553;SDS011;2800;49.528;8.666;2022-09-12T15:04:49;4.27;;;2.10;;
5553;SDS011;2800;49.528;8.666;2022-09-12T15:10:05;4.50;;;2.03;;
5553;SDS011;2800;49.528;8.666;2022-09-12T15:15:32;5.00;;;2.60;;
5553;SDS011;2800;49.528;8.666;2022-09-12T15:17:59;5.10;;;2.30;;
5553;SDS011;2800;49.528;8.666;2022-09-12T15:20:24;8.57;;;2.40;;
5553;SDS011;2800;49.528;8.666;2022-09-12T15:22:50;4.13;;;2.30;;
5553;SDS011;2800;49.528;8.666;2022-09-12T15:25:16;5.60;;;2.53;;
5553;SDS011;2800;49.528;8.666;2022-09-12T15:27:44;5.93;;;2.10;;
5553;SDS011;2800;49.528;8.666;2022-09-12T15:30:10;5.13;;;2.40;;
5553;SDS011;2800;49.528;8.666;2022-09-12T15:32:37;4.40;;;2.50;;
5553;SDS011;2800;49.528;8.666;2022-09-12T15:35:08;4.40;;;2.17;;
5553;SDS011;2800;49.528;8.666;2022-09-12T15:37:43;4.30;;;2.07;;
5553;SDS011;2800;49.528;8.666;2022-09-12T15:40:10;9.00;;;2.10;;
5553;SDS011;2800;49.528;8.666;2022-09-12T15:42:36;4.17;;;2.10;;
5553;SDS011;2800;49.528;8.666;2022-09-12T15:45:09;5.93;;;4.60;;
5553;SDS011;2800;49.528;8.666;2022-09-12T15:47:47;6.53;;;2.83;;
5553;SDS011;2800;49.528;8.666;2022-09-12T15:50:12;5.20;;;2.40;;
5553;SDS011;2800;49.528;8.666;2022-09-12T15:52:38;4.97;;;2.40;;
5553;SDS011;2800;49.528;8.666;2022-09-12T15:55:04;5.40;;;3.07;;
5553;SDS011;2800;49.528;8.666;2022-09-12T15:57:33;5.43;;;2.80;;
5553;SDS011;2800;49.528;8.666;2022-09-12T15:59:59;5.60;;;2.80;;
5553;SDS011;2800;49.528;8.666;2022-09-12T16:02:24;7.23;;;2.40;;
5553;SDS011;2800;49.528;8.666;2022-09-12T16:04:50;9.00;;;2.83;;
5553;SDS011;2800;49.528;8.666;2022-09-12T16:07:18;4.60;;;2.20;;
5553;SDS011;2800;49.528;8.666;2022-09-12T16:09:44;3.70;;;2.00;;
5553;SDS011;2800;49.528;8.666;2022-09-12T16:12:10;3.63;;;2.00;;
5553;SDS011;2800;49.528;8.666;2022-09-12T16:14:35;5.17;;;2.20;;
5553;SDS011;2800;49.528;8.666;2022-09-12T16:17:01;4.27;;;2.13;;
5553;SDS011;2800;49.528;8.666;2022-09-12T16:19:26;9.93;;;2.50;;
5553;SDS011;2800;49.528;8.666;2022-09-12T16:21:52;4.27;;;2.17;;
5553;SDS011;2800;49.528;8.666;2022-09-12T16:24:17;4.93;;;2.50;;
5553;SDS011;2800;49.528;8.666;2022-09-12T16:26:43;4.20;;;2.30;;
5553;SDS011;2800;49.528;8.666;2022-09-12T16:29:10;4.80;;;2.40;;
5553;SDS011;2800;49.528;8.666;2022-09-12T16:31:36;5.70;;;2.40;;
5553;SDS011;2800;49.528;8.666;2022-09-12T16:34:03;5.67;;;2.30;;
5553;SDS011;2800;49.528;8.666;2022-09-12T16:36:29;4.60;;;2.20;;
5553;SDS011;2800;49.528;8.666;2022-09-12T16:38:55;5.70;;;2.30;;
5553;SDS011;2800;49.528;8.666;2022-09-12T16:41:21;6.20;;;2.30;;
5553;SDS011;2800;49.528;8.666;2022-09-12T16:43:49;4.30;;;2.20;;
5553;SDS011;2800;49.528;8.666;2022-09-12T16:46:19;8.57;;;2.40;;
5553;SDS011;2800;49.528;8.666;2022-09-12T16:48:50;7.63;;;2.27;;
5553;SDS011;2800;49.528;8.666;2022-09-12T16:51:17;5.07;;;2.20;;
5553;SDS011;2800;49.528;8.666;2022-09-12T16:53:44;6.50;;;2.57;;
5553;SDS011;2800;49.528;8.666;2022-09-12T16:56:10;6.93;;;2.90;;
5553;SDS011;2800;49.528;8.666;2022-09-12T16:58:38;4.87;;;2.67;;
5553;SDS011;2800;49.528;8.666;2022-09-12T17:01:05;5.60;;;2.30;;
5553;SDS011;2800;49.528;8.666;2022-09-12T17:03:33;8.20;;;2.87;;
5553;SDS011;2800;49.528;8.666;2022-09-12T17:06:04;7.10;;;2.50;;
5553;SDS011;2800;49.528;8.666;2022-09-12T17:08:38;6.50;;;2.60;;
5553;SDS011;2800;49.528;8.666;2022-09-12T17:11:16;5.33;;;2.60;;
5553;SDS011;2800;49.528;8.666;2022-09-12T17:13:47;6.33;;;2.63;;
5553;SDS011;2800;49.528;8.666;2022-09-12T17:16:13;4.93;;;3.10;;
5553;SDS011;2800;49.528;8.666;2022-09-12T17:18:39;5.00;;;2.67;;
5553;SDS011;2800;49.528;8.666;2022-09-12T17:21:05;5.00;;;2.77;;
5553;SDS011;2800;49.528;8.666;2022-09-12T17:23:32;5.43;;;2.50;;
5553;SDS011;2800;49.528;8.666;2022-09-12T17:25:58;7.10;;;2.83;;
5553;SDS011;2800;49.528;8.666;2022-09-12T17:28:24;5.80;;;3.10;;
5553;SDS011;2800;49.528;8.666;2022-09-12T17:30:56;7.33;;;2.87;;
5553;SDS011;2800;49.528;8.666;2022-09-12T17:33:23;8.27;;;2.87;;
5553;SDS011;2800;49.528;8.666;2022-09-12T17:35:49;9.50;;;3.20;;
5553;SDS011;2800;49.528;8.666;2022-09-12T17:38:16;6.37;;;3.00;;
5553;SDS011;2800;49.528;8.666;2022-09-12T17:40:42;6.70;;;2.93;;
5553;SDS011;2800;49.528;8.666;2022-09-12T17:43:09;5.20;;;2.90;;
5553;SDS011;2800;49.528;8.666;2022-09-12T17:45:35;10.40;;;3.00;;